Time;durP1;ratioP1;P1;durP2;ratioP2;P2;SDS_P1;SDS_P2;PMS_P1;PMS_P2;Temp;Humidity;BMP_temperature;BMP_pressure;BME280_temperature;BME280_humidity;BME280_pressure;Samples;Min_cycle;Max_cycle;Signal;HPM_P1;HPM_P2
2022/04/27 00:00:04;;;;;;;10.93;5.43;;;8.00;99.90;;;;;;5092274;28;20034;-75
2022/04/27 00:02:30;;;;;;;11.23;6.25;;;8.00;99.90;;;;;;5092135;28;20445;-75
2022/04/27 00:04:57;;;;;;;10.73;5.13;;;8.00;99.90;;;;;;5092201;28;20387;-75
2022/04/27 00:07:23;;;;;;;8.98;6.22;;;8.00;99.90;;;;;;5092237;28;20043;-74
2022/04/27 00:09:48;;;;;;;11.45;5.47;;;8.00;99.90;;;;;;5109784;28;20048;-74
2022/04/27 00:12:14;;;;;;;11.52;5.90;;;8.10;99.90;;;;;;5109075;28;20035;-75
2022/04/27 00:14:40;;;;;;;9.23;5.88;;;8.10;99.90;;;;;;5109648;28;20075;-76
2022/04/27 00:17:05;;;;;;;10.88;5.75;;;9.10;99.90;;;;;;5107901;28;20070;-75
2022/04/27 00:19:31;;;;;;;12.70;6.22;;;8.10;99.90;;;;;;5110393;28;20075;-75
2022/04/27 00:21:56;;;;;;;12.07;6.70;;;8.10;99.90;;;;;;5108711;28;20047;-75
2022/04/27 00:24:22;;;;;;;9.35;5.85;;;8.10;99.90;;;;;;5091712;28;20470;-75
2022/04/27 00:26:48;;;;;;;9.95;6.00;;;8.10;99.90;;;;;;5091532;28;20399;-75
2022/04/27 00:29:14;;;;;;;9.15;6.20;;;8.10;99.90;;;;;;5089859;28;20043;-75
2022/04/27 00:31:39;;;;;;;8.57;5.72;;;8.10;99.90;;;;;;5110200;28;20040;-74
2022/04/27 00:34:05;;;;;;;7.30;5.60;;;8.10;99.90;;;;;;5108519;28;20039;-76
2022/04/27 00:36:31;;;;;;;7.88;5.47;;;8.00;99.90;;;;;;5108108;28;20088;-76
2022/04/27 00:38:58;;;;;;;11.60;6.80;;;8.30;99.90;;;;;;5108164;28;20032;-76
2022/04/27 00:41:23;;;;;;;11.80;6.45;;;8.00;99.90;;;;;;5109916;28;20530;-76
2022/04/27 00:43:49;;;;;;;15.68;6.68;;;8.00;99.90;;;;;;5107899;28;20040;-76
2022/04/27 00:46:15;;;;;;;9.82;6.30;;;8.00;99.90;;;;;;5108475;28;20075;-75
2022/04/27 00:48:41;;;;;;;12.55;6.60;;;7.90;99.90;;;;;;5108747;28;20043;-75
2022/04/27 00:51:10;;;;;;;9.20;6.68;;;7.90;99.90;;;;;;5107446;28;20043;-74
2022/04/27 00:53:37;;;;;;;9.70;6.22;;;7.90;99.90;;;;;;5109816;28;20055;-76
2022/04/27 00:56:03;;;;;;;12.57;6.65;;;7.90;99.90;;;;;;5107733;28;20146;-76
2022/04/27 00:58:29;;;;;;;8.20;5.97;;;7.90;99.90;;;;;;5109431;28;20079;-75
2022/04/27 01:00:55;;;;;;;10.52;6.03;;;7.90;99.90;;;;;;5109219;28;20097;-75
2022/04/27 01:03:22;;;;;;;11.10;6.25;;;8.00;99.90;;;;;;5109963;28;20047;-75
2022/04/27 01:05:48;;;;;;;9.35;5.30;;;8.00;99.90;;;;;;5107345;28;20044;-76
2022/04/27 01:08:18;;;;;;;13.52;6.10;;;8.00;99.90;;;;;;5109168;28;20083;-76
2022/04/27 01:10:47;;;;;;;6.90;5.75;;;8.10;99.90;;;;;;5109303;28;20048;-76
2022/04/27 01:13:13;;;;;;;13.52;6.25;;;8.00;99.90;;;;;;5107322;28;20063;-75
2022/04/27 01:15:39;;;;;;;14.23;7.70;;;9.60;99.90;;;;;;5109651;28;20059;-75
2022/04/27 01:18:06;;;;;;;9.75;5.78;;;8.00;99.90;;;;;;5108730;28;20589;-75
2022/04/27 01:20:45;;;;;;;10.05;5.63;;;8.30;99.90;;;;;;5090750;28;20043;-76
2022/04/27 01:23:14;;;;;;;10.77;5.60;;;9.20;99.90;;;;;;5101881;28;20358;-75
2022/04/27 01:25:54;;;;;;;9.52;5.18;;;8.00;99.90;;;;;;5107028;28;20052;-75
2022/04/27 01:28:25;;;;;;;11.30;5.35;;;8.00;99.90;;;;;;5091333;28;20028;-76
2022/04/27 01:30:59;;;;;;;10.30;5.53;;;8.00;99.90;;;;;;5090812;28;20050;-75
2022/04/27 01:33:27;;;;;;;13.40;5.78;;;8.00;99.90;;;;;;5107473;28;20475;-75
2022/04/27 01:35:53;;;;;;;13.15;4.72;;;8.00;99.90;;;;;;5090041;28;20048;-75
2022/04/27 01:38:19;;;;;;;9.65;4.65;;;8.00;99.90;;;;;;5107961;28;20074;-75
2022/04/27 01:40:45;;;;;;;9.65;5.25;;;8.00;99.90;;;;;;5106405;28;20044;-75
2022/04/27 01:43:14;;;;;;;12.07;5.32;;;8.00;99.90;;;;;;5107670;28;20445;-75
2022/04/27 01:45:41;;;;;;;9.05;5.15;;;7.90;99.90;;;;;;5107767;28;20056;-76
2022/04/27 01:48:07;;;;;;;8.02;5.25;;;7.90;99.90;;;;;;5107613;28;20058;-75
2022/04/27 01:50:33;;;;;;;7.85;5.10;;;7.90;99.90;;;;;;5091028;28;20066;-75
2022/04/27 01:55:43;;;;;;;5.45;4.35;;;7.90;99.90;;;;;;5107612;28;20048;-76
2022/04/27 01:58:08;;;;;;;12.30;5.20;;;8.00;99.90;;;;;;5108554;28;20050;-75
2022/04/27 02:00:34;;;;;;;12.82;5.13;;;8.00;99.90;;;;;;5090575;28;20054;-75
2022/04/27 02:02:59;;;;;;;13.77;4.30;;;8.00;99.90;;;;;;5108218;28;20043;-75
2022/04/27 02:05:26;;;;;;;8.88;4.57;;;8.00;99.90;;;;;;5108655;28;20120;-75
2022/04/27 02:07:51;;;;;;;11.88;5.03;;;8.00;99.90;;;;;;5107609;28;20326;-75
2022/04/27 02:10:17;;;;;;;9.25;4.25;;;8.00;99.90;;;;;;5108999;28;20126;-74
2022/04/27 02:12:43;;;;;;;11.27;4.30;;;8.20;99.90;;;;;;5107390;28;20128;-75
2022/04/27 02:15:09;;;;;;;9.65;4.60;;;8.00;99.90;;;;;;5089435;28;20165;-76
2022/04/27 02:17:35;;;;;;;11.15;4.40;;;8.00;99.90;;;;;;5108872;28;20063;-75
2022/04/27 02:20:01;;;;;;;6.60;4.20;;;8.00;99.90;;;;;;5106911;28;20576;-75
2022/04/27 02:22:27;;;;;;;10.00;4.63;;;8.00;99.90;;;;;;5106384;28;20051;-74
2022/04/27 02:24:52;;;;;;;9.63;4.53;;;8.00;99.90;;;;;;5108193;28;20169;-74
2022/04/27 02:27:19;;;;;;;9.00;4.65;;;8.00;99.90;;;;;;5107076;28;20047;-76
2022/04/27 02:29:44;;;;;;;8.40;4.47;;;8.00;99.90;;;;;;5106177;28;20130;-75
2022/04/27 02:32:10;;;;;;;9.63;4.40;;;8.00;99.90;;;;;;5106948;28;20169;-75
2022/04/27 02:34:36;;;;;;;8.85;3.60;;;8.00;99.90;;;;;;5090314;28;20047;-75
2022/04/27 02:37:03;;;;;;;13.95;4.55;;;8.00;99.90;;;;;;5105572;28;20036;-75
2022/04/27 02:39:29;;;;;;;6.45;3.38;;;8.00;99.90;;;;;;5090541;28;20036;-75
2022/04/27 02:41:54;;;;;;;9.27;3.63;;;8.00;99.90;;;;;;5106510;28;20046;-75
2022/04/27 02:44:20;;;;;;;7.60;4.72;;;8.00;99.90;;;;;;5106858;28;20124;-75
2022/04/27 02:46:46;;;;;;;7.35;3.70;;;8.00;99.90;;;;;;5106783;28;20407;-75
2022/04/27 02:51:56;;;;;;;8.18;3.08;;;8.30;99.90;;;;;;5107614;28;20525;-75
2022/04/27 02:54:23;;;;;;;7.97;3.63;;;8.00;99.90;;;;;;5112492;28;20105;-75
2022/04/27 02:56:49;;;;;;;7.20;3.40;;;8.00;99.90;;;;;;5110001;28;20397;-75
2022/04/27 02:59:16;;;;;;;4.40;3.15;;;8.00;99.90;;;;;;5093941;28;20071;-75
2022/04/27 03:01:42;;;;;;;7.40;3.63;;;8.10;99.90;;;;;;5110802;28;20055;-76
2022/04/27 03:04:09;;;;;;;9.40;3.20;;;8.00;99.90;;;;;;5103014;28;20148;-76
2022/04/27 03:06:35;;;;;;;5.97;3.15;;;8.00;99.90;;;;;;5111772;28;20054;-75
2022/04/27 03:09:01;;;;;;;6.45;3.08;;;8.00;99.90;;;;;;5110096;28;20075;-76
2022/04/27 03:11:26;;;;;;;13.00;3.60;;;8.00;99.90;;;;;;5111408;28;20124;-74
2022/04/27 03:13:52;;;;;;;9.15;3.88;;;8.00;99.90;;;;;;5110027;28;20079;-75
2022/04/27 03:16:18;;;;;;;4.38;2.40;;;8.00;99.90;;;;;;5111966;28;20096;-75
2022/04/27 03:18:43;;;;;;;7.35;3.17;;;8.00;99.90;;;;;;5109977;28;20100;-76
2022/04/27 03:21:10;;;;;;;3.85;2.75;;;7.90;99.90;;;;;;5110335;28;20050;-75
2022/04/27 03:23:36;;;;;;;8.98;3.55;;;8.00;99.90;;;;;;5110463;28;20055;-75
2022/04/27 03:26:02;;;;;;;7.07;3.00;;;8.00;99.90;;;;;;5092197;28;20047;-76
2022/04/27 03:28:28;;;;;;;7.78;2.67;;;8.00;99.90;;;;;;5110413;28;20035;-75
2022/04/27 03:30:54;;;;;;;11.95;4.00;;;8.00;99.90;;;;;;5109320;28;20096;-76
2022/04/27 03:33:20;;;;;;;5.32;3.05;;;8.00;99.90;;;;;;5109526;28;20031;-75
2022/04/27 03:35:46;;;;;;;7.47;2.65;;;8.10;99.90;;;;;;5110845;28;20903;-75
2022/04/27 03:38:14;;;;;;;6.07;2.90;;;8.10;99.90;;;;;;5111556;28;20058;-76
2022/04/27 03:40:41;;;;;;;5.57;2.72;;;8.10;99.90;;;;;;5092400;28;20050;-75
2022/04/27 03:43:07;;;;;;;5.07;2.90;;;9.20;99.90;;;;;;5092534;28;20407;-76
2022/04/27 03:45:33;;;;;;;5.55;2.40;;;8.10;99.90;;;;;;5110154;28;20502;-75
2022/04/27 03:47:59;;;;;;;7.25;3.03;;;8.10;99.90;;;;;;5109736;28;20040;-75
2022/04/27 03:50:25;;;;;;;6.28;2.90;;;8.10;99.90;;;;;;5109942;28;20602;-75
2022/04/27 03:52:50;;;;;;;8.55;3.72;;;8.10;99.90;;;;;;5109689;28;20038;-76
2022/04/27 03:55:16;;;;;;;10.20;2.65;;;8.10;99.90;;;;;;5109006;28;20040;-76
2022/04/27 03:57:41;;;;;;;5.80;3.08;;;8.10;99.90;;;;;;5109845;28;20096;-76
2022/04/27 04:00:08;;;;;;;5.82;2.80;;;8.00;99.90;;;;;;5108452;28;20048;-75
2022/04/27 04:02:36;;;;;;;7.63;3.38;;;8.00;99.90;;;;;;5092251;28;20043;-76
2022/04/27 04:05:01;;;;;;;7.38;3.00;;;8.00;99.90;;;;;;5110455;28;20119;-75
2022/04/27 04:07:27;;;;;;;8.48;2.95;;;8.00;99.90;;;;;;5109098;28;20243;-74
2022/04/27 04:09:52;;;;;;;5.15;2.72;;;8.00;99.90;;;;;;5108927;28;20044;-75
2022/04/27 04:12:18;;;;;;;5.85;3.80;;;7.90;99.90;;;;;;5109725;28;20527;-75
2022/04/27 04:14:43;;;;;;;5.50;3.17;;;7.90;99.90;;;;;;5108747;28;20574;-74
2022/04/27 04:17:09;;;;;;;9.48;3.13;;;7.90;99.90;;;;;;5108859;28;20157;-75
2022/04/27 04:19:35;;;;;;;5.45;3.10;;;7.90;99.90;;;;;;5109484;28;20062;-75
2022/04/27 04:22:00;;;;;;;4.78;2.65;;;7.90;99.90;;;;;;5108000;28;20040;-76
2022/04/27 04:24:26;;;;;;;3.42;2.50;;;8.00;99.90;;;;;;5109274;28;20050;-75
2022/04/27 04:29:36;;;;;;;5.85;2.90;;;7.90;99.90;;;;;;5109704;28;20491;-76
2022/04/27 04:32:02;;;;;;;5.75;2.97;;;7.90;99.90;;;;;;5108372;28;20035;-75
2022/04/27 04:34:28;;;;;;;8.13;3.17;;;7.90;99.90;;;;;;5110627;28;20192;-77
2022/04/27 04:36:53;;;;;;;8.45;3.08;;;9.30;99.90;;;;;;5107812;28;20123;-78
2022/04/27 04:39:19;;;;;;;4.95;3.70;;;8.40;99.90;;;;;;5109174;28;20035;-77
2022/04/27 04:41:45;;;;;;;8.65;3.28;;;7.90;99.90;;;;;;5108683;28;20042;-76
2022/04/27 04:44:11;;;;;;;6.65;3.35;;;7.90;99.90;;;;;;5108175;28;20468;-76
2022/04/27 04:46:36;;;;;;;5.15;3.63;;;7.90;99.90;;;;;;5108717;28;20114;-75
2022/04/27 04:49:02;;;;;;;8.43;3.90;;;8.00;99.90;;;;;;5090792;28;20901;-75
2022/04/27 04:51:28;;;;;;;4.10;2.80;;;7.90;99.90;;;;;;5108097;28;20063;-75
2022/04/27 04:53:54;;;;;;;5.20;4.20;;;7.90;99.90;;;;;;5109558;28;20039;-75
2022/04/27 04:56:20;;;;;;;3.90;3.50;;;7.90;99.90;;;;;;5108344;28;20435;-76
2022/04/27 04:58:46;;;;;;;4.75;3.25;;;7.90;99.90;;;;;;5108065;28;20128;-75
2022/04/27 05:01:12;;;;;;;8.88;3.90;;;7.90;99.90;;;;;;5108232;28;20043;-76
2022/04/27 05:03:38;;;;;;;5.00;3.33;;;8.30;99.90;;;;;;5109198;28;20051;-75
2022/04/27 05:06:04;;;;;;;4.75;3.00;;;7.80;99.90;;;;;;5107704;28;20047;-76
2022/04/27 05:08:30;;;;;;;5.90;2.80;;;7.90;99.90;;;;;;5091764;28;20104;-75
2022/04/27 05:10:55;;;;;;;12.02;3.10;;;7.90;99.90;;;;;;5090550;28;20425;-76
2022/04/27 05:13:21;;;;;;;4.10;2.60;;;8.00;99.90;;;;;;5109944;28;20063;-77
2022/04/27 05:15:48;;;;;;;5.15;2.67;;;8.00;99.90;;;;;;5108448;28;20035;-76
2022/04/27 05:18:14;;;;;;;8.52;3.30;;;8.00;99.90;;;;;;5108954;27;20081;-75
2022/04/27 05:20:40;;;;;;;5.93;2.85;;;8.10;99.90;;;;;;5108076;28;20464;-74
2022/04/27 05:23:05;;;;;;;6.30;3.10;;;8.00;99.90;;;;;;5107531;28;20135;-76
2022/04/27 05:25:34;;;;;;;7.93;3.03;;;8.10;99.90;;;;;;5107126;28;20040;-75
2022/04/27 05:28:02;;;;;;;5.13;3.17;;;8.10;99.90;;;;;;5107550;28;20046;-76
2022/04/27 05:33:12;;;;;;;3.40;2.83;;;8.10;99.90;;;;;;5107411;28;20391;-76
2022/04/27 05:35:41;;;;;;;5.95;3.63;;;8.20;99.90;;;;;;5090651;28;20044;-75
2022/04/27 05:38:08;;;;;;;5.38;3.35;;;8.20;99.90;;;;;;5090293;28;20085;-75
2022/04/27 05:40:34;;;;;;;7.72;3.10;;;8.10;99.90;;;;;;5090690;28;20040;-75
2022/04/27 05:43:04;;;;;;;3.50;2.60;;;8.20;99.90;;;;;;5090373;28;20138;-75
2022/04/27 05:45:32;;;;;;;7.40;3.05;;;8.20;99.90;;;;;;5108829;28;20087;-76
2022/04/27 05:47:58;;;;;;;3.92;3.05;;;8.20;99.90;;;;;;5107686;28;20048;-76
2022/04/27 05:50:24;;;;;;;5.88;3.00;;;9.00;99.90;;;;;;5107986;28;20213;-77
2022/04/27 05:52:56;;;;;;;4.13;2.97;;;8.20;99.90;;;;;;5090069;28;20150;-75
2022/04/27 05:55:22;;;;;;;3.50;2.72;;;8.30;99.90;;;;;;5099620;28;20100;-76
2022/04/27 05:57:49;;;;;;;4.50;3.35;;;8.30;99.90;;;;;;5090288;28;20043;-74
2022/04/27 06:00:16;;;;;;;4.18;3.03;;;8.30;99.90;;;;;;5108022;28;20132;-76
2022/04/27 06:02:42;;;;;;;8.13;3.75;;;8.30;99.90;;;;;;5107818;28;20044;-76
2022/04/27 06:05:09;;;;;;;5.22;3.40;;;8.30;99.90;;;;;;5108876;28;20047;-74
2022/04/27 06:07:36;;;;;;;5.53;2.90;;;8.30;99.90;;;;;;5108184;28;20040;-74
2022/04/27 06:10:06;;;;;;;3.10;2.42;;;8.40;99.90;;;;;;5107117;28;20097;-75
2022/04/27 06:12:36;;;;;;;4.88;3.03;;;8.40;99.90;;;;;;5107536;28;20475;-75
2022/04/27 06:15:10;;;;;;;7.22;3.17;;;8.40;99.90;;;;;;5107768;28;20054;-75
2022/04/27 06:17:35;;;;;;;4.70;3.42;;;8.40;99.90;;;;;;5107417;28;20047;-75
2022/04/27 06:20:02;;;;;;;3.35;2.45;;;8.40;99.90;;;;;;5106846;28;20404;-76
2022/04/27 06:22:28;;;;;;;7.75;3.45;;;8.40;99.90;;;;;;5107208;28;20088;-76
2022/04/27 06:24:53;;;;;;;4.97;2.80;;;8.50;99.90;;;;;;5107090;28;20496;-77
2022/04/27 06:27:19;;;;;;;11.05;3.10;;;8.50;99.90;;;;;;5110815;28;20047;-75
2022/04/27 06:29:45;;;;;;;6.63;2.53;;;8.50;99.90;;;;;;5111821;28;20042;-76
2022/04/27 06:32:10;;;;;;;7.22;2.40;;;8.50;99.90;;;;;;5112251;28;20471;-74
2022/04/27 06:34:36;;;;;;;4.15;2.75;;;8.50;99.90;;;;;;5094413;28;20162;-75
2022/04/27 06:37:01;;;;;;;6.63;2.92;;;8.50;99.90;;;;;;5109939;28;20383;-75
2022/04/27 06:39:27;;;;;;;4.30;2.85;;;8.60;99.90;;;;;;5111160;28;20184;-76
2022/04/27 06:41:53;;;;;;;2.70;2.50;;;8.60;99.90;;;;;;5110106;28;20548;-76
2022/04/27 06:44:18;;;;;;;6.43;4.57;;;9.10;99.90;;;;;;5111336;28;20469;-75
2022/04/27 06:46:44;;;;;;;7.20;3.80;;;9.60;99.90;;;;;;5110555;28;20464;-75
2022/04/27 06:49:09;;;;;;;4.80;3.70;;;8.60;99.90;;;;;;5109901;28;20047;-76
2022/04/27 06:51:35;;;;;;;9.50;3.00;;;8.70;99.90;;;;;;5112100;27;20101;-76
2022/04/27 06:54:00;;;;;;;3.72;2.83;;;8.70;99.90;;;;;;5110485;28;20259;-76
2022/04/27 06:56:26;;;;;;;6.45;2.28;;;8.70;99.90;;;;;;5110101;28;20501;-76
2022/04/27 06:58:52;;;;;;;6.07;1.70;;;9.40;99.90;;;;;;5111504;27;20039;-76
2022/04/27 07:01:18;;;;;;;4.35;1.63;;;8.80;99.90;;;;;;5094018;28;20447;-76
2022/04/27 07:03:44;;;;;;;4.03;1.75;;;8.80;99.90;;;;;;5111470;28;20040;-76
2022/04/27 07:06:10;;;;;;;2.28;1.55;;;8.80;99.90;;;;;;5111611;28;20039;-76
2022/04/27 07:08:35;;;;;;;7.05;2.00;;;8.90;99.90;;;;;;5112170;28;20085;-76
2022/04/27 07:11:01;;;;;;;4.30;2.10;;;8.90;99.90;;;;;;5109766;28;20328;-75
2022/04/27 07:13:29;;;;;;;4.50;2.10;;;8.90;99.90;;;;;;5093365;28;20032;-77
2022/04/27 07:16:00;;;;;;;4.80;2.08;;;9.30;99.90;;;;;;5109679;28;20063;-77
2022/04/27 07:18:27;;;;;;;5.38;2.03;;;8.90;99.90;;;;;;5109794;28;20063;-77
2022/04/27 07:20:53;;;;;;;4.05;2.22;;;8.90;99.90;;;;;;5110236;28;20115;-75
2022/04/27 07:23:18;;;;;;;4.15;2.00;;;9.00;99.90;;;;;;5093349;28;20563;-76
2022/04/27 07:25:44;;;;;;;3.33;1.85;;;9.00;99.90;;;;;;5109170;28;20039;-77
2022/04/27 07:28:10;;;;;;;6.82;1.70;;;8.60;99.90;;;;;;5111212;28;20031;-77
2022/04/27 07:30:35;;;;;;;6.90;3.97;;;9.00;99.90;;;;;;5110266;28;20046;-75
2022/04/27 07:33:01;;;;;;;6.03;2.20;;;9.10;99.90;;;;;;5110104;28;20035;-77
2022/04/27 07:35:26;;;;;;;9.52;2.13;;;9.10;99.90;;;;;;5092969;28;21059;-77
2022/04/27 07:37:52;;;;;;;6.95;1.63;;;9.10;99.90;;;;;;5110528;28;20134;-77
2022/04/27 07:40:18;;;;;;;6.50;1.52;;;9.20;99.90;;;;;;5110981;28;20044;-76
2022/04/27 07:42:43;;;;;;;5.70;1.77;;;9.10;99.90;;;;;;5109887;28;20035;-77
2022/04/27 07:45:09;;;;;;;5.93;1.58;;;9.20;99.90;;;;;;5110286;28;20446;-75
2022/04/27 07:47:53;;;;;;;7.80;1.60;;;9.30;99.90;;;;;;5110098;28;20404;-77
2022/04/27 07:50:19;;;;;;;10.38;1.60;;;9.30;99.90;;;;;;5111488;28;20051;-78
2022/04/27 07:52:45;;;;;;;7.50;1.90;;;9.40;99.90;;;;;;5110650;28;20031;-77
2022/04/27 07:55:11;;;;;;;5.78;1.42;;;9.40;99.90;;;;;;5092170;28;20172;-76
2022/04/27 07:57:37;;;;;;;3.33;1.33;;;9.40;99.90;;;;;;5109824;28;20040;-76
2022/04/27 08:00:09;;;;;;;9.73;1.92;;;9.40;99.90;;;;;;5108837;28;20126;-75
2022/04/27 08:02:36;;;;;;;2.33;0.85;;;9.40;99.90;;;;;;5109408;28;20042;-77
2022/04/27 08:05:02;;;;;;;6.38;1.35;;;9.50;99.90;;;;;;5109321;28;20056;-76
2022/04/27 08:07:35;;;;;;;5.75;1.02;;;9.50;99.90;;;;;;5109033;28;20052;-75
2022/04/27 08:10:23;;;;;;;5.95;1.58;;;9.60;99.90;;;;;;5110295;28;20039;-77
2022/04/27 08:12:49;;;;;;;8.60;2.28;;;9.60;99.90;;;;;;5104296;28;20046;-76
2022/04/27 08:15:16;;;;;;;6.20;2.10;;;9.60;99.90;;;;;;5109558;28;20028;-77
2022/04/27 08:17:55;;;;;;;13.45;3.15;;;9.60;99.90;;;;;;5110901;28;20085;-76
2022/04/27 08:23:13;;;;;;;6.30;1.98;;;9.60;99.90;;;;;;5108892;28;20050;-77
2022/04/27 08:25:39;;;;;;;7.05;1.63;;;9.70;99.90;;;;;;5110196;28;20494;-77
2022/04/27 08:28:07;;;;;;;4.78;1.40;;;10.90;99.90;;;;;;5109670;28;20115;-75
2022/04/27 08:30:38;;;;;;;7.70;1.30;;;9.70;99.90;;;;;;5109210;28;20062;-77
2022/04/27 08:33:05;;;;;;;7.78;1.83;;;9.70;99.90;;;;;;5108414;28;20032;-76
2022/04/27 08:35:31;;;;;;;8.02;1.88;;;9.80;99.90;;;;;;5108447;28;20483;-77
2022/04/27 08:38:01;;;;;;;6.85;1.55;;;9.70;99.90;;;;;;5109698;28;20391;-77
2022/04/27 08:40:27;;;;;;;8.13;3.15;;;9.80;99.90;;;;;;5108936;28;20035;-76
2022/04/27 08:42:54;;;;;;;11.82;6.78;;;9.80;99.90;;;;;;5107810;28;20051;-76
2022/04/27 08:45:21;;;;;;;5.90;1.92;;;9.80;99.90;;;;;;5108271;28;20526;-75
2022/04/27 08:47:47;;;;;;;7.35;2.70;;;9.80;99.90;;;;;;5108100;28;20040;-76
2022/04/27 08:50:15;;;;;;;5.82;1.40;;;9.80;99.90;;;;;;5107082;28;20132;-76
2022/04/27 08:52:41;;;;;;;4.93;1.80;;;9.80;99.90;;;;;;5110504;28;20131;-76
2022/04/27 08:55:08;;;;;;;6.20;2.25;;;9.90;99.90;;;;;;5107960;28;20035;-75
2022/04/27 08:57:34;;;;;;;5.50;1.73;;;9.80;99.90;;;;;;5109387;28;20032;-77
2022/04/27 09:00:00;;;;;;;7.80;1.60;;;9.90;99.90;;;;;;5109516;28;20038;-77
2022/04/27 09:02:26;;;;;;;8.55;1.80;;;9.90;99.90;;;;;;5108504;28;20040;-76
2022/04/27 09:05:09;;;;;;;10.75;2.20;;;9.90;99.90;;;;;;5107418;28;20495;-76
2022/04/27 09:07:37;;;;;;;10.00;1.67;;;9.90;99.90;;;;;;5092181;28;20502;-77
2022/04/27 09:10:04;;;;;;;12.23;2.28;;;11.60;99.90;;;;;;5107329;28;20124;-77
2022/04/27 09:12:29;;;;;;;12.05;2.13;;;9.90;99.90;;;;;;5091320;28;20053;-76
2022/04/27 09:15:04;;;;;;;12.25;1.75;;;9.90;99.90;;;;;;5107618;28;20039;-76
2022/04/27 09:22:59;;;;;;;16.50;2.08;;;9.90;99.90;;;;;;5102813;28;20075;-76
2022/04/27 09:25:36;;;;;;;14.32;2.08;;;9.90;99.90;;;;;;5107422;28;20078;-75
2022/04/27 09:28:03;;;;;;;8.13;1.50;;;9.90;99.90;;;;;;5108948;28;20040;-77
2022/04/27 09:30:33;;;;;;;11.95;2.17;;;9.90;99.90;;;;;;5109453;28;20271;-75
2022/04/27 09:32:59;;;;;;;14.77;1.95;;;10.00;99.90;;;;;;5106673;28;20054;-76
2022/04/27 09:35:36;;;;;;;16.00;2.25;;;9.90;99.90;;;;;;5107502;28;20039;-78
2022/04/27 09:38:21;;;;;;;8.93;1.90;;;10.60;99.90;;;;;;5107104;28;20073;-77
2022/04/27 09:40:48;;;;;;;15.57;3.72;;;10.00;99.90;;;;;;5099368;28;20114;-78
2022/04/27 09:43:15;;;;;;;10.05;1.95;;;10.00;99.90;;;;;;5108571;28;20515;-78
2022/04/27 09:45:45;;;;;;;10.80;1.98;;;10.00;99.90;;;;;;5089944;28;20040;-77
2022/04/27 09:48:18;;;;;;;16.17;2.92;;;10.00;99.90;;;;;;5090544;28;20135;-78
2022/04/27 09:50:58;;;;;;;7.15;1.88;;;11.30;99.90;;;;;;5107373;28;20492;-76
2022/04/27 09:53:24;;;;;;;15.98;2.13;;;10.00;99.90;;;;;;5107101;28;20054;-76
2022/04/27 09:55:59;;;;;;;18.98;2.35;;;11.60;99.90;;;;;;5108548;28;20124;-75
2022/04/27 09:58:27;;;;;;;11.05;2.13;;;10.10;99.90;;;;;;5107832;28;20074;-77
2022/04/27 10:00:57;;;;;;;12.25;2.25;;;10.10;99.90;;;;;;5107837;28;20112;-76
2022/04/27 10:03:25;;;;;;;11.63;1.60;;;10.10;99.90;;;;;;5107569;28;20480;-75
2022/04/27 10:05:51;;;;;;;13.02;2.33;;;10.00;99.90;;;;;;5098635;28;20104;-76
2022/04/27 10:08:19;;;;;;;15.40;2.75;;;10.00;99.90;;;;;;5109005;28;20035;-77
2022/04/27 10:10:46;;;;;;;13.77;2.85;;;10.00;99.90;;;;;;5106996;28;20415;-75
2022/04/27 10:13:14;;;;;;;11.48;2.25;;;10.50;99.90;;;;;;5106484;28;20078;-77
2022/04/27 10:15:45;;;;;;;13.98;2.65;;;10.10;99.90;;;;;;5107514;28;20043;-76
2022/04/27 10:18:18;;;;;;;14.63;2.58;;;10.10;99.90;;;;;;5108849;28;20036;-77
2022/04/27 10:20:45;;;;;;;17.98;3.97;;;10.10;99.90;;;;;;5107987;28;20035;-77
2022/04/27 10:23:33;;;;;;;10.00;2.42;;;10.10;99.90;;;;;;5108613;28;20047;-76
2022/04/27 10:26:11;;;;;;;11.95;1.85;;;10.20;99.90;;;;;;5100865;28;20119;-76
2022/04/27 10:29:00;;;;;;;14.32;2.28;;;10.10;99.90;;;;;;5108135;28;20399;-77
2022/04/27 10:31:42;;;;;;;7.90;1.75;;;9.90;99.90;;;;;;5090663;28;20471;-75
2022/04/27 10:34:26;;;;;;;8.45;1.88;;;10.10;99.90;;;;;;5100542;28;20031;-76
2022/04/27 10:37:00;;;;;;;14.38;3.65;;;10.20;99.90;;;;;;5107723;28;20050;-75
2022/04/27 10:39:28;;;;;;;10.40;2.50;;;10.20;99.90;;;;;;5108412;28;20088;-74
2022/04/27 10:41:59;;;;;;;14.95;3.15;;;10.20;99.90;;;;;;5098820;28;20043;-73
2022/04/27 10:44:58;;;;;;;11.18;1.95;;;10.20;99.90;;;;;;5105393;28;20051;-75
2022/04/27 10:47:23;;;;;;;9.38;2.72;;;10.20;99.90;;;;;;5102863;28;20116;-78
2022/04/27 10:50:18;;;;;;;9.20;1.65;;;10.20;99.90;;;;;;5107570;28;20056;-78
2022/04/27 10:52:50;;;;;;;14.27;3.27;;;10.30;99.90;;;;;;5087635;28;20039;-76
2022/04/27 10:55:34;;;;;;;17.60;2.08;;;10.40;99.90;;;;;;5107205;28;20282;-78
2022/04/27 10:58:12;;;;;;;6.57;2.28;;;10.50;99.90;;;;;;5107937;28;20145;-78
2022/04/27 11:01:03;;;;;;;11.82;1.80;;;10.50;99.90;;;;;;5107347;28;20085;-79
2022/04/27 11:03:30;;;;;;;12.18;2.05;;;10.60;99.90;;;;;;5106485;28;20040;-78
2022/04/27 11:06:13;;;;;;;10.02;2.45;;;10.60;99.90;;;;;;5099363;28;20711;-76
2022/04/27 11:08:47;;;;;;;7.32;1.35;;;10.70;99.90;;;;;;5107530;28;20583;-77
2022/04/27 11:11:16;;;;;;;21.50;4.15;;;10.80;99.90;;;;;;5107570;28;20043;-76
2022/04/27 11:13:42;;;;;;;11.65;2.13;;;10.80;99.90;;;;;;5110025;28;20457;-77
2022/04/27 11:16:10;;;;;;;30.27;11.05;;;10.50;99.90;;;;;;5110348;28;20535;-77
2022/04/27 11:18:58;;;;;;;12.43;3.67;;;10.90;99.90;;;;;;5110026;28;20058;-79
2022/04/27 11:21:26;;;;;;;10.55;2.65;;;11.00;99.90;;;;;;5109439;28;20327;-80
2022/04/27 11:23:53;;;;;;;12.25;2.50;;;11.00;99.90;;;;;;5107901;27;20062;-76
2022/04/27 11:26:19;;;;;;;10.43;1.85;;;11.10;99.90;;;;;;5110241;28;20039;-78
2022/04/27 11:28:46;;;;;;;13.82;2.78;;;11.20;99.90;;;;;;5110252;28;20039;-80
2022/04/27 11:31:13;;;;;;;12.85;2.13;;;11.20;99.90;;;;;;5109413;28;20100;-76
2022/04/27 11:33:40;;;;;;;10.75;2.15;;;11.30;99.90;;;;;;5109070;28;20089;-81
2022/04/27 11:36:27;;;;;;;7.90;1.55;;;11.30;99.90;;;;;;5091621;28;20040;-81
2022/04/27 11:38:54;;;;;;;12.90;2.47;;;11.40;99.90;;;;;;5091708;28;20039;-80
2022/04/27 11:41:23;;;;;;;8.93;1.77;;;11.50;99.90;;;;;;5111194;28;20040;-78
2022/04/27 11:43:50;;;;;;;11.40;1.98;;;11.50;99.90;;;;;;5109892;28;20044;-77
2022/04/27 11:46:15;;;;;;;15.30;2.13;;;11.60;99.90;;;;;;5092238;28;20044;-80
2022/04/27 11:48:51;;;;;;;10.40;2.33;;;11.70;99.90;;;;;;5092662;28;20058;-76
2022/04/27 11:51:16;;;;;;;9.43;1.50;;;11.60;99.90;;;;;;5111642;27;20062;-79
2022/04/27 11:53:43;;;;;;;7.13;1.63;;;12.90;99.90;;;;;;5110429;28;20411;-78
2022/04/27 11:56:09;;;;;;;8.63;1.98;;;11.80;99.90;;;;;;5109486;28;20054;-78
2022/04/27 11:58:35;;;;;;;11.65;2.55;;;11.80;99.90;;;;;;5110783;28;20469;-77
2022/04/27 12:01:01;;;;;;;10.50;2.13;;;11.80;99.90;;;;;;5110309;28;20165;-80
2022/04/27 12:03:28;;;;;;;7.30;1.70;;;11.80;99.90;;;;;;5092636;28;20495;-80
2022/04/27 12:05:54;;;;;;;10.18;1.55;;;11.70;99.90;;;;;;5107974;28;20078;-79
2022/04/27 12:08:25;;;;;;;7.43;1.00;;;11.70;99.90;;;;;;5110877;28;20402;-76
2022/04/27 12:10:51;;;;;;;15.93;2.80;;;11.70;99.90;;;;;;5110379;27;20804;-80
2022/04/27 12:13:18;;;;;;;9.80;2.20;;;11.80;99.90;;;;;;5092298;28;20106;-75
2022/04/27 12:15:48;;;;;;;12.75;1.98;;;11.70;99.90;;;;;;5108355;28;20043;-79
2022/04/27 12:18:18;;;;;;;7.43;2.05;;;12.80;99.90;;;;;;5108211;28;20127;-78
2022/04/27 12:20:48;;;;;;;6.32;1.35;;;12.00;99.90;;;;;;5087543;28;20497;-79
2022/04/27 12:23:20;;;;;;;6.95;1.55;;;12.10;99.90;;;;;;5108762;28;20123;-75
2022/04/27 12:25:54;;;;;;;8.48;1.83;;;12.20;99.90;;;;;;5108699;28;20491;-80
2022/04/27 12:28:24;;;;;;;14.85;1.90;;;12.20;99.90;;;;;;5108805;28;20051;-78
2022/04/27 12:30:54;;;;;;;9.50;1.50;;;12.30;99.90;;;;;;5091822;28;20039;-77
2022/04/27 12:33:25;;;;;;;5.72;1.50;;;12.30;99.90;;;;;;5072059;28;20066;-77
2022/04/27 12:39:03;;;;;;;7.53;1.80;;;12.20;99.90;;;;;;5108792;28;20055;-75
2022/04/27 12:41:33;;;;;;;5.07;1.38;;;12.30;99.90;;;;;;5109135;28;20083;-75
2022/04/27 12:44:05;;;;;;;5.43;1.92;;;12.20;99.90;;;;;;5108124;28;20043;-72
2022/04/27 12:46:31;;;;;;;10.65;2.25;;;12.20;99.90;;;;;;5107693;28;20483;-72
2022/04/27 12:49:05;;;;;;;9.68;1.75;;;12.20;99.90;;;;;;4752487;28;10000164;-72
2022/04/27 12:51:34;;;;;;;7.55;1.80;;;12.20;99.90;;;;;;5103734;28;20116;-72
2022/04/27 12:54:00;;;;;;;10.07;1.83;;;12.20;99.90;;;;;;5106418;28;20096;-72
2022/04/27 12:56:36;;;;;;;9.55;1.73;;;12.20;99.90;;;;;;5105857;28;20043;-72
2022/04/27 12:59:12;;;;;;;9.15;2.53;;;12.20;99.90;;;;;;5107614;28;20050;-73
2022/04/27 13:01:38;;;;;;;8.18;2.10;;;12.10;99.90;;;;;;5105514;28;20117;-73
2022/04/27 13:04:05;;;;;;;6.50;2.05;;;12.00;99.90;;;;;;5106918;28;20495;-72
2022/04/27 13:06:31;;;;;;;15.32;2.35;;;12.00;99.90;;;;;;5105841;28;20564;-73
2022/04/27 13:11:55;;;;;;;10.73;2.00;;;12.00;99.90;;;;;;5101237;28;20496;-73
2022/04/27 13:11:55;;;;;;;24.80;2.63;;;11.90;99.90;;;;;;5096714;28;20138;-73
2022/04/27 13:14:22;;;;;;;11.40;2.35;;;11.80;99.90;;;;;;5098775;28;20028;-74
2022/04/27 13:16:48;;;;;;;10.73;2.10;;;11.70;99.90;;;;;;5098787;28;20044;-74